DFFD/OUA METAR and TAF weather

Enter ICAO airport designator
Station Type Date Time Source
DFFD METAR 2018/01/21 12:00 UTC NOAA

DFFD 211200Z 08010KT 050V120 8000 NSC 32/M05 Q1015 NOSIG


Station Type Date Time Source
DFFD Decoded METAR 2018/01/21 12:00 UTC NOAA

Ouagadougou, Burkina Faso (DFFD) 12-21N 001-31W 306M
Jan 21, 2018 - 07:00 AM EST / 2018.01.21 1200 UTC
Wind: from the E (080 degrees) at 12 MPH (10 KT) (direction variable):0
Visibility: 4 mile(s):0
Temperature: 89 F (32 C)
Dew Point: 23 F (-5 C)
Relative Humidity: 8%
Pressure (altimeter): 29.97 in. Hg (1015 hPa)
ob: DFFD 211200Z 08010KT 050V120 8000 NSC 32/M05 Q1015 NOSIG
cycle: 12

Station Type Date Time Source
DFFD TAF 2018/01/21 12:21 UTC NOAA

TAF TAF DFFD 211100Z 2112/2218 08010KT 8000 NSC
TEMPO 2206/2210 3500 DU


Example: see airport list